Time;durP1;ratioP1;P1;durP2;ratioP2;P2;SDS_P1;SDS_P2;PMS_P1;PMS_P2;Temp;Humidity;BMP_temperature;BMP_pressure;BME280_temperature;BME280_humidity;BME280_pressure;Samples;Min_cycle;Max_cycle;Signal;HPM_P1;HPM_P2
2022/11/20 00:01:32;;;;;;;120.30;56.27;;;;;;;;;;5009734;28;20839;-38
2022/11/20 00:03:59;;;;;;;111.17;53.43;;;;;;;;;;5006253;28;21172;-36
2022/11/20 00:06:25;;;;;;;123.50;57.03;;;;;;;;;;5006211;28;20218;-37
2022/11/20 00:08:51;;;;;;;119.97;57.33;;;;;;;;;;5009797;28;20258;-36
2022/11/20 00:11:21;;;;;;;103.77;52.07;;;;;;;;;;5007553;28;20706;-35
2022/11/20 00:13:49;;;;;;;108.87;51.50;;;;;;;;;;5004325;28;20523;-36
2022/11/20 00:16:16;;;;;;;132.33;59.93;;;;;;;;;;5010007;28;20172;-36
2022/11/20 00:18:43;;;;;;;118.40;55.27;;;;;;;;;;5009320;28;21006;-37
2022/11/20 00:21:18;;;;;;;110.47;52.50;;;;;;;;;;5008749;28;20445;-37
2022/11/20 00:23:44;;;;;;;120.83;57.27;;;;;;;;;;5008718;28;20733;-36
2022/11/20 00:26:12;;;;;;;115.27;55.33;;;;;;;;;;5010345;28;20636;-37
2022/11/20 00:28:38;;;;;;;123.77;57.83;;;;;;;;;;5009627;28;20739;-37
2022/11/20 00:31:06;;;;;;;99.37;51.20;;;;;;;;;;5007959;28;20902;-36
2022/11/20 00:33:32;;;;;;;112.73;53.83;;;;;;;;;;5006342;28;21104;-36
2022/11/20 00:36:05;;;;;;;108.93;53.57;;;;;;;;;;5011271;28;20426;-38
2022/11/20 00:38:31;;;;;;;108.33;53.30;;;;;;;;;;5006970;28;20496;-37
2022/11/20 00:40:58;;;;;;;99.87;50.03;;;;;;;;;;5004391;28;20507;-36
2022/11/20 00:43:24;;;;;;;103.80;53.67;;;;;;;;;;5008384;28;20388;-36
2022/11/20 00:45:50;;;;;;;95.93;50.80;;;;;;;;;;5008951;28;20508;-37
2022/11/20 00:48:16;;;;;;;114.00;53.13;;;;;;;;;;5007052;28;20215;-36
2022/11/20 00:50:42;;;;;;;116.43;57.33;;;;;;;;;;5005724;28;20265;-36
2022/11/20 00:53:09;;;;;;;125.07;57.63;;;;;;;;;;5005258;28;21057;-37
2022/11/20 00:55:35;;;;;;;119.70;57.67;;;;;;;;;;5011021;28;20180;-37
2022/11/20 00:58:01;;;;;;;124.70;59.50;;;;;;;;;;5006376;28;20335;-36
2022/11/20 01:00:27;;;;;;;114.93;55.50;;;;;;;;;;5005774;28;20188;-36
2022/11/20 01:02:53;;;;;;;111.23;55.37;;;;;;;;;;5009981;28;20224;-36
2022/11/20 01:05:19;;;;;;;122.70;57.23;;;;;;;;;;5006150;28;20470;-36
2022/11/20 01:07:45;;;;;;;120.17;55.97;;;;;;;;;;5006347;28;20727;-36
2022/11/20 01:10:12;;;;;;;109.10;53.30;;;;;;;;;;5002259;28;20719;-36
2022/11/20 01:12:38;;;;;;;106.27;53.63;;;;;;;;;;5009771;28;20172;-37
2022/11/20 01:15:05;;;;;;;109.27;52.47;;;;;;;;;;5008982;28;20434;-36
2022/11/20 01:17:31;;;;;;;115.07;54.60;;;;;;;;;;5004452;28;20180;-37
2022/11/20 01:19:58;;;;;;;124.93;58.53;;;;;;;;;;5007951;28;21005;-37
2022/11/20 01:22:24;;;;;;;99.17;51.30;;;;;;;;;;5006075;28;20430;-36
2022/11/20 01:24:50;;;;;;;102.17;52.27;;;;;;;;;;5003232;28;21128;-36
2022/11/20 01:27:16;;;;;;;106.47;52.23;;;;;;;;;;5007081;28;20177;-36
2022/11/20 01:29:42;;;;;;;102.87;52.07;;;;;;;;;;5006731;28;20616;-37
2022/11/20 01:32:08;;;;;;;126.40;59.90;;;;;;;;;;5009337;28;20844;-36
2022/11/20 01:34:34;;;;;;;120.37;56.73;;;;;;;;;;5004565;28;20910;-36
2022/11/20 01:37:00;;;;;;;106.37;51.83;;;;;;;;;;5005188;28;20192;-37
2022/11/20 01:39:27;;;;;;;115.80;54.87;;;;;;;;;;5004891;28;20699;-36
2022/11/20 01:44:48;;;;;;;112.73;54.33;;;;;;;;;;5008060;28;20885;-37
2022/11/20 01:47:16;;;;;;;113.47;54.00;;;;;;;;;;5008276;28;20568;-37
2022/11/20 01:49:55;;;;;;;102.77;50.77;;;;;;;;;;5006190;28;20458;-37
2022/11/20 01:52:23;;;;;;;102.77;51.27;;;;;;;;;;5005403;28;20287;-37
2022/11/20 01:54:51;;;;;;;89.57;49.47;;;;;;;;;;5008943;28;20492;-36
2022/11/20 01:57:18;;;;;;;116.70;54.60;;;;;;;;;;5006005;28;20852;-37
2022/11/20 01:59:45;;;;;;;107.50;53.57;;;;;;;;;;5003250;28;20643;-36
2022/11/20 02:02:11;;;;;;;116.60;55.37;;;;;;;;;;5006671;28;21047;-36
2022/11/20 02:04:38;;;;;;;127.43;59.27;;;;;;;;;;5010453;28;20285;-37
2022/11/20 02:07:04;;;;;;;100.70;50.17;;;;;;;;;;5010339;28;20942;-37
2022/11/20 02:09:31;;;;;;;119.40;56.77;;;;;;;;;;5008504;28;21145;-37
2022/11/20 02:11:58;;;;;;;104.97;52.30;;;;;;;;;;5007248;28;20964;-37
2022/11/20 02:14:25;;;;;;;130.90;60.27;;;;;;;;;;5011131;28;20439;-37
2022/11/20 02:16:51;;;;;;;131.70;59.50;;;;;;;;;;5007340;28;20426;-36
2022/11/20 02:19:37;;;;;;;110.13;54.67;;;;;;;;;;5010266;28;20466;-36
2022/11/20 02:22:06;;;;;;;134.63;61.47;;;;;;;;;;5012316;28;20439;-36
2022/11/20 02:24:32;;;;;;;96.43;50.20;;;;;;;;;;5010468;28;20616;-36
2022/11/20 02:27:07;;;;;;;102.93;52.27;;;;;;;;;;5006647;28;20751;-37
2022/11/20 02:29:38;;;;;;;112.67;54.77;;;;;;;;;;5009680;28;20426;-36
2022/11/20 02:32:05;;;;;;;101.80;52.37;;;;;;;;;;5012527;28;20422;-36
2022/11/20 02:34:31;;;;;;;114.20;55.30;;;;;;;;;;5009170;28;21059;-36
2022/11/20 02:36:57;;;;;;;105.90;54.20;;;;;;;;;;5006894;28;20942;-37
2022/11/20 02:39:25;;;;;;;126.83;60.00;;;;;;;;;;5007477;28;20519;-36
2022/11/20 02:41:52;;;;;;;115.43;55.90;;;;;;;;;;5009229;28;20426;-36
2022/11/20 02:44:18;;;;;;;124.47;59.53;;;;;;;;;;5010760;28;20462;-37
2022/11/20 02:46:44;;;;;;;106.87;54.67;;;;;;;;;;5011171;28;20862;-37
2022/11/20 02:49:11;;;;;;;102.90;54.40;;;;;;;;;;5007393;28;20426;-36
2022/11/20 02:51:37;;;;;;;114.77;56.77;;;;;;;;;;5009169;28;20454;-37
2022/11/20 02:54:03;;;;;;;106.67;55.47;;;;;;;;;;5009624;28;20504;-37
2022/11/20 02:56:30;;;;;;;100.03;51.80;;;;;;;;;;5012092;28;20433;-37
2022/11/20 02:58:56;;;;;;;106.50;53.37;;;;;;;;;;5009916;28;20504;-38
2022/11/20 03:01:22;;;;;;;110.03;55.00;;;;;;;;;;5009521;28;21201;-38
2022/11/20 03:03:48;;;;;;;101.30;51.77;;;;;;;;;;5006723;28;20438;-37
2022/11/20 03:06:15;;;;;;;102.57;53.37;;;;;;;;;;5008974;28;20458;-37
2022/11/20 03:08:41;;;;;;;105.33;53.53;;;;;;;;;;5009182;28;20435;-37
2022/11/20 03:11:08;;;;;;;101.83;54.07;;;;;;;;;;5012888;28;20437;-37
2022/11/20 03:13:34;;;;;;;97.57;51.50;;;;;;;;;;5012346;28;20553;-37
2022/11/20 03:16:07;;;;;;;91.80;48.60;;;;;;;;;;5014273;28;21303;-37
2022/11/20 03:18:33;;;;;;;113.50;55.30;;;;;;;;;;5012931;28;20438;-37
2022/11/20 03:20:59;;;;;;;149.00;66.27;;;;;;;;;;5012697;28;20437;-36
2022/11/20 03:23:26;;;;;;;105.70;52.83;;;;;;;;;;5014433;28;21172;-38
2022/11/20 03:25:52;;;;;;;107.47;53.53;;;;;;;;;;5012334;28;20463;-37
2022/11/20 03:28:18;;;;;;;107.70;55.47;;;;;;;;;;5005719;28;20545;-37
2022/11/20 03:30:44;;;;;;;94.60;50.20;;;;;;;;;;5005678;28;21372;-37
2022/11/20 03:33:10;;;;;;;85.50;48.77;;;;;;;;;;5002886;28;20481;-37
2022/11/20 03:35:36;;;;;;;100.93;52.80;;;;;;;;;;4999225;28;20452;-37
2022/11/20 03:38:02;;;;;;;102.53;51.97;;;;;;;;;;5003197;28;21144;-37
2022/11/20 03:40:28;;;;;;;106.37;54.90;;;;;;;;;;5002769;28;20438;-38
2022/11/20 03:42:54;;;;;;;104.10;51.70;;;;;;;;;;5005038;28;20434;-37
2022/11/20 03:45:20;;;;;;;101.60;51.67;;;;;;;;;;4999334;28;20620;-37
2022/11/20 03:47:46;;;;;;;103.43;52.60;;;;;;;;;;4999143;28;20523;-37
2022/11/20 03:50:13;;;;;;;93.20;49.67;;;;;;;;;;5004289;28;21655;-38
2022/11/20 03:52:40;;;;;;;96.07;51.63;;;;;;;;;;5004801;28;20426;-37
2022/11/20 03:55:07;;;;;;;130.47;58.93;;;;;;;;;;5005373;28;20434;-37
2022/11/20 03:57:33;;;;;;;103.53;53.17;;;;;;;;;;5008253;28;20430;-36
2022/11/20 03:59:59;;;;;;;97.27;51.57;;;;;;;;;;5007698;28;20442;-38
2022/11/20 04:02:25;;;;;;;104.07;52.60;;;;;;;;;;5005944;28;20430;-37
2022/11/20 04:04:51;;;;;;;119.43;57.97;;;;;;;;;;5009769;28;20469;-37
2022/11/20 04:07:17;;;;;;;99.10;54.27;;;;;;;;;;5007985;28;20905;-37
2022/11/20 04:09:43;;;;;;;99.67;52.83;;;;;;;;;;5010332;28;20429;-38
2022/11/20 04:12:09;;;;;;;102.90;52.80;;;;;;;;;;5012762;28;20430;-38
2022/11/20 04:14:35;;;;;;;129.97;59.50;;;;;;;;;;5014476;28;20695;-38
2022/11/20 04:17:02;;;;;;;104.40;54.27;;;;;;;;;;5011140;28;21742;-37
2022/11/20 04:19:28;;;;;;;95.90;52.53;;;;;;;;;;5012887;28;20489;-37
2022/11/20 04:21:54;;;;;;;104.23;52.67;;;;;;;;;;5011861;28;20434;-37
2022/11/20 04:24:20;;;;;;;102.30;53.97;;;;;;;;;;5015067;28;20848;-37
2022/11/20 04:26:52;;;;;;;102.13;54.47;;;;;;;;;;5014064;28;20544;-38
2022/11/20 04:29:18;;;;;;;114.47;55.33;;;;;;;;;;5013235;28;21167;-38
2022/11/20 04:31:44;;;;;;;108.33;55.57;;;;;;;;;;5015178;28;20484;-37
2022/11/20 04:34:12;;;;;;;100.27;52.83;;;;;;;;;;5014188;28;20434;-37
2022/11/20 04:36:38;;;;;;;98.43;51.67;;;;;;;;;;5005871;28;20437;-37
2022/11/20 04:39:06;;;;;;;125.23;60.87;;;;;;;;;;5012173;28;20426;-36
2022/11/20 04:41:36;;;;;;;102.10;52.23;;;;;;;;;;5008994;28;20430;-37
2022/11/20 04:44:03;;;;;;;102.97;53.67;;;;;;;;;;5012854;28;21962;-37
2022/11/20 04:46:30;;;;;;;99.53;52.60;;;;;;;;;;5007768;28;21344;-38
2022/11/20 04:48:56;;;;;;;97.53;55.27;;;;;;;;;;5008777;28;20433;-37
2022/11/20 04:51:23;;;;;;;117.00;60.23;;;;;;;;;;5008438;28;20476;-37
2022/11/20 04:53:49;;;;;;;164.23;70.50;;;;;;;;;;5014071;28;20880;-37
2022/11/20 04:56:15;;;;;;;155.73;72.93;;;;;;;;;;5010477;28;20470;-37
2022/11/20 04:58:42;;;;;;;110.00;60.00;;;;;;;;;;5009065;28;21361;-37
2022/11/20 05:01:12;;;;;;;164.60;78.57;;;;;;;;;;5006111;28;20466;-36
2022/11/20 05:03:39;;;;;;;138.33;68.97;;;;;;;;;;5013291;28;20561;-37
2022/11/20 05:06:06;;;;;;;172.67;78.47;;;;;;;;;;5012306;28;20453;-37
2022/11/20 05:08:32;;;;;;;156.47;77.10;;;;;;;;;;5015482;28;20426;-37
2022/11/20 05:11:05;;;;;;;185.50;80.37;;;;;;;;;;5011630;28;20430;-38
2022/11/20 05:13:32;;;;;;;132.23;67.80;;;;;;;;;;5016330;28;20427;-37
2022/11/20 05:16:05;;;;;;;123.13;63.57;;;;;;;;;;5013171;28;21322;-37
2022/11/20 05:18:32;;;;;;;105.37;57.73;;;;;;;;;;5012291;28;20438;-38
2022/11/20 05:20:58;;;;;;;112.00;58.73;;;;;;;;;;5015546;28;20537;-37
2022/11/20 05:23:25;;;;;;;126.23;64.90;;;;;;;;;;5015396;28;20427;-36
2022/11/20 05:25:54;;;;;;;110.57;58.63;;;;;;;;;;5015216;28;20449;-37
2022/11/20 05:28:21;;;;;;;136.53;65.63;;;;;;;;;;5014786;28;20618;-37
2022/11/20 05:30:47;;;;;;;152.43;72.93;;;;;;;;;;5014472;28;22452;-37
2022/11/20 05:33:13;;;;;;;154.07;74.37;;;;;;;;;;5010295;28;20494;-37
2022/11/20 05:35:39;;;;;;;112.70;61.63;;;;;;;;;;5012676;28;20582;-38
2022/11/20 05:38:05;;;;;;;105.87;58.57;;;;;;;;;;5011953;28;20426;-37
2022/11/20 05:40:31;;;;;;;98.63;53.63;;;;;;;;;;5014446;28;20819;-37
2022/11/20 05:42:57;;;;;;;97.83;55.90;;;;;;;;;;5011099;28;20616;-37
2022/11/20 05:45:23;;;;;;;132.77;65.80;;;;;;;;;;5011094;28;20462;-37
2022/11/20 05:47:50;;;;;;;90.37;51.60;;;;;;;;;;5015776;28;20775;-36
2022/11/20 05:50:16;;;;;;;100.00;55.90;;;;;;;;;;5010463;28;20796;-37
2022/11/20 05:52:42;;;;;;;139.07;67.07;;;;;;;;;;5011379;28;20426;-36
2022/11/20 05:55:08;;;;;;;110.40;57.73;;;;;;;;;;5011619;28;20527;-36
2022/11/20 05:57:34;;;;;;;114.30;61.37;;;;;;;;;;5010184;28;20854;-36
2022/11/20 06:00:00;;;;;;;131.40;64.30;;;;;;;;;;5013913;28;20440;-36
2022/11/20 06:02:26;;;;;;;93.97;51.87;;;;;;;;;;5013858;28;21079;-36
2022/11/20 06:04:52;;;;;;;95.17;53.53;;;;;;;;;;5010510;28;20544;-37
2022/11/20 06:07:18;;;;;;;138.00;67.67;;;;;;;;;;5014642;28;20437;-37
2022/11/20 06:09:45;;;;;;;97.57;51.67;;;;;;;;;;5012890;28;20438;-37
2022/11/20 06:12:11;;;;;;;99.70;56.10;;;;;;;;;;5012188;28;20431;-36
2022/11/20 06:14:37;;;;;;;95.77;53.10;;;;;;;;;;5013570;28;20438;-37
2022/11/20 06:17:03;;;;;;;119.20;61.33;;;;;;;;;;5011577;28;21354;-36
2022/11/20 06:19:29;;;;;;;100.17;55.17;;;;;;;;;;5011017;28;21513;-36
2022/11/20 06:21:55;;;;;;;111.73;57.23;;;;;;;;;;5012883;28;20975;-36
2022/11/20 06:24:21;;;;;;;135.27;65.00;;;;;;;;;;5015978;28;20427;-36
2022/11/20 06:26:47;;;;;;;153.50;74.07;;;;;;;;;;5014765;28;20449;-37
2022/11/20 06:29:13;;;;;;;88.70;52.30;;;;;;;;;;5017100;28;20475;-36
2022/11/20 06:31:42;;;;;;;141.60;68.70;;;;;;;;;;5015822;28;20426;-36
2022/11/20 06:34:08;;;;;;;107.17;57.77;;;;;;;;;;5011704;28;20437;-37
2022/11/20 06:36:34;;;;;;;120.90;63.53;;;;;;;;;;5009085;28;20929;-37
2022/11/20 06:39:01;;;;;;;94.93;55.53;;;;;;;;;;5013732;28;20427;-37
2022/11/20 06:41:27;;;;;;;168.73;75.67;;;;;;;;;;5014011;28;20435;-36
2022/11/20 06:43:53;;;;;;;126.93;64.30;;;;;;;;;;5013546;28;20434;-37
2022/11/20 06:46:20;;;;;;;119.37;62.63;;;;;;;;;;5013804;28;20575;-37
2022/11/20 06:48:47;;;;;;;107.77;59.90;;;;;;;;;;5009832;28;21147;-37
2022/11/20 06:51:13;;;;;;;120.97;63.93;;;;;;;;;;5013644;28;20929;-37
2022/11/20 06:53:39;;;;;;;110.23;61.50;;;;;;;;;;5015100;28;20544;-37
2022/11/20 06:56:06;;;;;;;108.00;59.60;;;;;;;;;;5012394;28;20438;-36
2022/11/20 06:58:32;;;;;;;149.53;73.53;;;;;;;;;;5014766;28;20434;-37
2022/11/20 07:00:59;;;;;;;147.30;72.57;;;;;;;;;;5009646;28;20949;-37
2022/11/20 07:03:25;;;;;;;149.80;70.77;;;;;;;;;;5010870;28;20585;-37
2022/11/20 07:05:51;;;;;;;128.90;66.77;;;;;;;;;;5011696;28;20461;-36
2022/11/20 07:08:17;;;;;;;104.20;61.07;;;;;;;;;;5005721;28;20529;-36
2022/11/20 07:10:44;;;;;;;169.33;78.20;;;;;;;;;;5008395;28;20442;-36
2022/11/20 07:13:10;;;;;;;122.27;66.97;;;;;;;;;;5003980;28;20430;-36
2022/11/20 07:15:36;;;;;;;152.97;74.57;;;;;;;;;;4997296;28;20442;-36
2022/11/20 07:18:02;;;;;;;118.87;65.03;;;;;;;;;;5000695;28;21251;-36
2022/11/20 07:20:28;;;;;;;104.90;60.70;;;;;;;;;;4999773;28;20557;-36
2022/11/20 07:22:55;;;;;;;159.77;75.40;;;;;;;;;;5004011;28;20627;-36
2022/11/20 07:25:21;;;;;;;151.37;72.77;;;;;;;;;;4996188;28;21277;-37
2022/11/20 07:27:47;;;;;;;115.97;63.67;;;;;;;;;;4992997;28;20426;-37
2022/11/20 07:30:14;;;;;;;80.90;51.93;;;;;;;;;;5010483;28;20521;-36
2022/11/20 07:32:40;;;;;;;91.43;55.20;;;;;;;;;;5007031;28;20462;-36
2022/11/20 07:35:06;;;;;;;95.63;56.37;;;;;;;;;;5010384;28;20430;-37
2022/11/20 07:37:36;;;;;;;113.87;62.80;;;;;;;;;;5008265;28;20934;-37
2022/11/20 07:40:02;;;;;;;104.37;58.93;;;;;;;;;;5010258;28;20437;-36
2022/11/20 07:42:28;;;;;;;84.03;53.03;;;;;;;;;;5005503;28;21027;-37
2022/11/20 07:44:54;;;;;;;98.60;56.73;;;;;;;;;;5006645;28;20863;-37
2022/11/20 07:47:20;;;;;;;112.97;61.30;;;;;;;;;;5000900;28;20426;-37
2022/11/20 07:49:46;;;;;;;85.60;52.70;;;;;;;;;;5005047;28;20565;-37
2022/11/20 07:52:12;;;;;;;85.53;50.73;;;;;;;;;;5009071;28;20505;-37
2022/11/20 07:54:38;;;;;;;100.27;56.77;;;;;;;;;;5007172;28;20430;-37
2022/11/20 07:57:05;;;;;;;98.30;56.00;;;;;;;;;;5004908;28;20426;-37
2022/11/20 07:59:31;;;;;;;94.80;53.03;;;;;;;;;;4998830;28;20932;-37
2022/11/20 08:01:57;;;;;;;79.17;47.60;;;;;;;;;;4998841;28;21265;-36
2022/11/20 08:04:23;;;;;;;93.73;54.63;;;;;;;;;;5005351;28;20451;-37
2022/11/20 08:06:49;;;;;;;91.93;52.17;;;;;;;;;;5003968;28;20438;-37
2022/11/20 08:09:15;;;;;;;81.70;48.27;;;;;;;;;;5014617;28;20430;-37
2022/11/20 08:14:27;;;;;;;75.87;47.63;;;;;;;;;;5010807;28;20449;-37
2022/11/20 08:16:53;;;;;;;102.83;57.37;;;;;;;;;;5007745;28;22393;-37
2022/11/20 08:19:20;;;;;;;98.60;55.57;;;;;;;;;;5009517;28;22976;-36
2022/11/20 08:21:46;;;;;;;89.60;52.77;;;;;;;;;;5009716;28;20443;-36
2022/11/20 08:24:12;;;;;;;93.07;52.77;;;;;;;;;;5003260;28;21598;-36
2022/11/20 08:26:39;;;;;;;83.70;50.90;;;;;;;;;;5009094;28;20458;-36
2022/11/20 08:29:05;;;;;;;94.33;52.70;;;;;;;;;;5012792;28;20513;-37
2022/11/20 08:31:31;;;;;;;92.37;53.53;;;;;;;;;;5013242;28;21440;-37
2022/11/20 08:33:58;;;;;;;90.70;51.23;;;;;;;;;;5011883;28;20435;-37
2022/11/20 08:36:24;;;;;;;90.13;51.40;;;;;;;;;;5011997;28;20441;-37
2022/11/20 08:38:54;;;;;;;85.23;49.97;;;;;;;;;;5012442;28;20437;-37
2022/11/20 08:41:24;;;;;;;86.57;49.97;;;;;;;;;;5013436;28;20473;-37
2022/11/20 08:44:10;;;;;;;89.00;50.23;;;;;;;;;;5006706;28;20490;-37
2022/11/20 08:46:37;;;;;;;89.57;50.43;;;;;;;;;;5010832;28;20291;-37
2022/11/20 08:49:08;;;;;;;93.07;51.83;;;;;;;;;;5009114;28;20423;-37
2022/11/20 08:51:35;;;;;;;87.50;49.17;;;;;;;;;;5011550;28;20735;-38
2022/11/20 08:54:01;;;;;;;95.13;52.03;;;;;;;;;;5012891;28;20423;-38
2022/11/20 08:56:27;;;;;;;90.33;50.77;;;;;;;;;;5009023;28;21146;-38
2022/11/20 08:58:53;;;;;;;91.07;51.27;;;;;;;;;;5008806;28;21167;-37
2022/11/20 09:01:20;;;;;;;87.23;48.87;;;;;;;;;;5008540;28;20740;-37
2022/11/20 09:03:46;;;;;;;79.60;46.30;;;;;;;;;;5013614;28;20191;-38
2022/11/20 09:06:13;;;;;;;80.77;48.17;;;;;;;;;;5014594;28;20459;-38
2022/11/20 09:08:39;;;;;;;85.30;49.23;;;;;;;;;;5014777;28;20176;-38
2022/11/20 09:11:05;;;;;;;81.23;47.57;;;;;;;;;;5007030;28;20274;-38
2022/11/20 09:13:32;;;;;;;80.17;46.90;;;;;;;;;;5015814;28;20191;-38
2022/11/20 09:16:03;;;;;;;76.80;46.23;;;;;;;;;;5013105;28;20295;-38
2022/11/20 09:18:31;;;;;;;75.80;44.70;;;;;;;;;;5015269;28;20196;-38
2022/11/20 09:20:58;;;;;;;77.00;45.43;;;;;;;;;;5011491;28;20222;-38
2022/11/20 09:23:24;;;;;;;81.40;45.27;;;;;;;;;;5011087;28;20606;-38
2022/11/20 09:25:52;;;;;;;78.57;46.50;;;;;;;;;;5013481;28;20208;-38
2022/11/20 09:28:18;;;;;;;77.30;44.97;;;;;;;;;;5012878;28;20880;-39
2022/11/20 09:30:45;;;;;;;74.07;44.13;;;;;;;;;;5010980;28;20666;-39
2022/11/20 09:33:11;;;;;;;75.27;44.77;;;;;;;;;;5015271;28;20172;-38
2022/11/20 09:35:37;;;;;;;78.00;44.93;;;;;;;;;;5015777;28;20945;-38
2022/11/20 09:38:10;;;;;;;76.20;45.20;;;;;;;;;;5010266;28;20184;-39
2022/11/20 09:40:38;;;;;;;75.93;44.50;;;;;;;;;;5011494;28;20184;-37
2022/11/20 09:43:11;;;;;;;80.03;47.23;;;;;;;;;;5010423;28;20187;-39
2022/11/20 09:45:55;;;;;;;80.17;46.10;;;;;;;;;;5012389;28;20270;-38
2022/11/20 09:48:27;;;;;;;79.97;46.60;;;;;;;;;;5013817;28;20184;-38
2022/11/20 09:51:01;;;;;;;79.63;45.97;;;;;;;;;;5019536;28;20177;-38
2022/11/20 09:53:27;;;;;;;78.53;45.70;;;;;;;;;;5014982;28;20173;-39
2022/11/20 09:55:53;;;;;;;77.83;45.83;;;;;;;;;;5014648;28;20605;-39
2022/11/20 09:58:29;;;;;;;78.63;46.43;;;;;;;;;;5018060;28;20208;-38
2022/11/20 10:00:58;;;;;;;75.10;46.10;;;;;;;;;;5015726;28;20311;-38
2022/11/20 10:03:34;;;;;;;82.20;47.70;;;;;;;;;;5011019;28;20234;-39
2022/11/20 10:06:01;;;;;;;75.07;45.20;;;;;;;;;;5012585;28;20742;-39
2022/11/20 10:08:34;;;;;;;86.07;47.83;;;;;;;;;;5016011;28;20696;-39
2022/11/20 10:11:17;;;;;;;85.27;48.93;;;;;;;;;;5014150;28;20274;-38
2022/11/20 10:14:01;;;;;;;83.83;48.50;;;;;;;;;;5012676;28;20168;-39
2022/11/20 10:16:46;;;;;;;84.77;48.83;;;;;;;;;;5013474;28;20191;-38
2022/11/20 10:19:31;;;;;;;86.60;50.00;;;;;;;;;;5013028;28;20916;-39
2022/11/20 10:21:57;;;;;;;86.43;49.37;;;;;;;;;;5017918;28;20833;-38
2022/11/20 10:24:29;;;;;;;84.20;49.10;;;;;;;;;;5016232;28;20417;-38
2022/11/20 10:27:09;;;;;;;86.07;47.67;;;;;;;;;;5017016;28;20185;-38
2022/11/20 10:29:37;;;;;;;86.57;48.70;;;;;;;;;;5015383;28;20173;-38
2022/11/20 10:32:16;;;;;;;85.87;49.17;;;;;;;;;;5016291;28;20184;-38
2022/11/20 10:34:42;;;;;;;83.10;48.00;;;;;;;;;;5018853;28;20206;-38
2022/11/20 10:37:22;;;;;;;86.57;49.57;;;;;;;;;;5015162;28;20870;-38
2022/11/20 10:39:54;;;;;;;84.40;50.33;;;;;;;;;;5017616;28;20184;-38
2022/11/20 10:42:29;;;;;;;87.37;51.33;;;;;;;;;;5019418;28;20172;-39
2022/11/20 10:45:01;;;;;;;80.90;48.07;;;;;;;;;;5014870;28;20315;-39
2022/11/20 10:47:28;;;;;;;80.17;46.73;;;;;;;;;;5015100;28;20462;-39
2022/11/20 10:49:56;;;;;;;80.90;46.67;;;;;;;;;;5013134;28;20863;-39
2022/11/20 10:52:28;;;;;;;81.63;47.63;;;;;;;;;;5016213;28;20680;-39
2022/11/20 10:55:00;;;;;;;81.23;46.50;;;;;;;;;;5013593;28;20176;-39
2022/11/20 10:57:32;;;;;;;79.57;47.83;;;;;;;;;;5011589;28;20187;-38
2022/11/20 10:59:58;;;;;;;73.60;44.37;;;;;;;;;;5011794;28;20341;-39
2022/11/20 11:02:33;;;;;;;80.70;47.07;;;;;;;;;;5014735;28;21661;-38
2022/11/20 11:05:01;;;;;;;78.60;46.53;;;;;;;;;;5012152;28;20277;-37
2022/11/20 11:07:31;;;;;;;79.80;45.60;;;;;;;;;;5009147;28;20191;-38
2022/11/20 11:09:57;;;;;;;79.20;46.33;;;;;;;;;;5012146;28;20177;-38
2022/11/20 11:12:28;;;;;;;76.43;46.17;;;;;;;;;;5010975;28;20639;-37
2022/11/20 11:14:55;;;;;;;80.03;48.67;;;;;;;;;;5011993;28;20196;-38
2022/11/20 11:17:27;;;;;;;79.60;46.37;;;;;;;;;;5014344;28;20645;-38
2022/11/20 11:20:12;;;;;;;75.43;45.37;;;;;;;;;;5017535;28;20946;-37
2022/11/20 11:22:48;;;;;;;83.93;46.67;;;;;;;;;;5014667;28;20180;-37
2022/11/20 11:25:34;;;;;;;79.57;47.67;;;;;;;;;;5014298;28;20898;-38
2022/11/20 11:28:05;;;;;;;82.40;48.00;;;;;;;;;;5016854;28;20610;-38
2022/11/20 11:30:41;;;;;;;82.17;47.43;;;;;;;;;;5012069;28;20597;-37
2022/11/20 11:33:10;;;;;;;86.80;49.10;;;;;;;;;;5014923;28;20498;-37
2022/11/20 11:35:44;;;;;;;71.90;45.40;;;;;;;;;;5013135;28;20192;-37
2022/11/20 11:38:34;;;;;;;79.17;47.00;;;;;;;;;;5012633;28;20908;-38
2022/11/20 11:41:00;;;;;;;79.87;46.80;;;;;;;;;;5006996;28;21818;-38
2022/11/20 11:46:20;;;;;;;79.40;46.20;;;;;;;;;;5012988;28;20325;-38
2022/11/20 11:49:00;;;;;;;82.37;48.37;;;;;;;;;;5011972;28;20172;-38
2022/11/20 11:51:33;;;;;;;75.73;44.87;;;;;;;;;;5011910;28;20175;-38
2022/11/20 11:54:01;;;;;;;68.30;43.00;;;;;;;;;;5013978;28;20177;-37
2022/11/20 11:56:28;;;;;;;76.80;45.70;;;;;;;;;;5012479;28;20184;-38
2022/11/20 11:58:59;;;;;;;74.70;44.63;;;;;;;;;;5013607;28;20185;-38
2022/11/20 12:01:45;;;;;;;72.27;44.17;;;;;;;;;;5012139;28;20307;-38
2022/11/20 12:04:30;;;;;;;77.40;44.83;;;;;;;;;;5007284;28;20211;-38
2022/11/20 12:07:01;;;;;;;70.00;42.40;;;;;;;;;;5007745;28;20215;-38
2022/11/20 12:09:35;;;;;;;71.90;44.23;;;;;;;;;;5009510;28;20189;-38
2022/11/20 12:12:13;;;;;;;74.20;42.73;;;;;;;;;;5008629;28;20180;-38
2022/11/20 12:14:41;;;;;;;68.27;42.00;;;;;;;;;;5008786;28;20179;-38
2022/11/20 12:17:17;;;;;;;74.37;43.47;;;;;;;;;;5012022;28;20576;-38
2022/11/20 12:19:44;;;;;;;71.70;43.23;;;;;;;;;;5008395;28;20173;-37
2022/11/20 12:22:13;;;;;;;71.23;42.40;;;;;;;;;;5002814;28;22070;-37
2022/11/20 12:24:46;;;;;;;70.57;42.80;;;;;;;;;;5008724;28;20174;-38
2022/11/20 12:27:24;;;;;;;70.73;43.97;;;;;;;;;;5011426;28;20241;-39
2022/11/20 12:29:50;;;;;;;68.47;42.03;;;;;;;;;;5005864;28;20486;-39
2022/11/20 12:32:16;;;;;;;62.67;39.13;;;;;;;;;;5002961;28;20638;-38
2022/11/20 12:34:51;;;;;;;69.00;41.80;;;;;;;;;;5010702;28;20172;-39
2022/11/20 12:37:17;;;;;;;74.27;45.43;;;;;;;;;;4998109;28;20235;-39
2022/11/20 12:39:48;;;;;;;67.93;42.60;;;;;;;;;;4998343;28;20179;-39
2022/11/20 12:45:11;;;;;;;66.90;40.33;;;;;;;;;;5003865;28;20203;-39
2022/11/20 12:47:37;;;;;;;68.90;41.93;;;;;;;;;;5000878;28;20734;-39
2022/11/20 12:50:14;;;;;;;61.17;38.30;;;;;;;;;;5005937;28;20186;-38
2022/11/20 12:52:46;;;;;;;65.50;40.27;;;;;;;;;;5008799;28;20211;-38
2022/11/20 12:55:26;;;;;;;63.63;39.33;;;;;;;;;;5006449;28;20184;-39
2022/11/20 12:58:01;;;;;;;67.20;41.30;;;;;;;;;;5005146;28;20188;-39
2022/11/20 13:00:27;;;;;;;63.70;39.70;;;;;;;;;;5006750;28;21266;-39
2022/11/20 13:02:59;;;;;;;64.10;39.93;;;;;;;;;;5009963;28;20691;-39
2022/11/20 13:05:46;;;;;;;63.57;39.47;;;;;;;;;;5006462;28;20310;-39
2022/11/20 13:08:20;;;;;;;62.83;38.87;;;;;;;;;;5004086;28;20458;-39
2022/11/20 13:10:51;;;;;;;68.10;41.57;;;;;;;;;;5004035;28;20175;-38
2022/11/20 13:13:40;;;;;;;61.10;39.10;;;;;;;;;;5009376;28;20171;-40
2022/11/20 13:16:10;;;;;;;63.37;40.23;;;;;;;;;;4997758;28;20195;-39
2022/11/20 13:18:42;;;;;;;59.47;38.10;;;;;;;;;;5010330;28;20172;-39
2022/11/20 13:21:15;;;;;;;62.40;37.70;;;;;;;;;;5014777;28;20434;-38
2022/11/20 13:23:41;;;;;;;58.57;36.33;;;;;;;;;;5020740;28;20656;-38
2022/11/20 13:26:16;;;;;;;59.93;36.03;;;;;;;;;;5012699;28;20620;-39
2022/11/20 13:28:42;;;;;;;59.17;36.13;;;;;;;;;;5014091;28;20176;-39
2022/11/20 13:31:44;;;;;;;57.70;36.53;;;;;;;;;;5013904;28;20302;-38
2022/11/20 13:34:12;;;;;;;59.70;37.10;;;;;;;;;;4926672;28;21071;-39
2022/11/20 13:36:48;;;;;;;55.83;34.60;;;;;;;;;;4997687;28;20836;-38
2022/11/20 13:39:24;;;;;;;53.43;34.67;;;;;;;;;;5015650;28;20271;-38
2022/11/20 13:42:00;;;;;;;54.87;34.43;;;;;;;;;;5018987;28;21033;-38
2022/11/20 13:44:30;;;;;;;50.30;32.67;;;;;;;;;;5016449;28;20171;-39
2022/11/20 13:46:56;;;;;;;51.17;31.87;;;;;;;;;;5008285;28;20528;-39
2022/11/20 13:49:25;;;;;;;50.80;32.73;;;;;;;;;;5013947;28;20175;-38
2022/11/20 13:51:55;;;;;;;52.03;31.97;;;;;;;;;;5018265;28;20178;-39
2022/11/20 13:54:39;;;;;;;50.40;32.97;;;;;;;;;;5016090;28;20176;-39
2022/11/20 13:57:28;;;;;;;48.73;31.27;;;;;;;;;;5016838;28;20463;-38
2022/11/20 13:59:57;;;;;;;54.33;32.70;;;;;;;;;;4973607;28;20189;-39
2022/11/20 14:02:26;;;;;;;48.93;31.13;;;;;;;;;;5015021;28;20760;-38
2022/11/20 14:04:53;;;;;;;48.23;30.90;;;;;;;;;;5013422;28;20743;-38
2022/11/20 14:07:20;;;;;;;49.27;30.93;;;;;;;;;;5013329;28;20180;-38
2022/11/20 14:09:54;;;;;;;46.30;30.30;;;;;;;;;;5016430;28;20602;-39
2022/11/20 14:12:22;;;;;;;54.13;32.93;;;;;;;;;;5006837;28;20181;-38
2022/11/20 14:14:50;;;;;;;54.80;33.30;;;;;;;;;;5008809;28;20179;-38
2022/11/20 14:17:21;;;;;;;54.53;33.77;;;;;;;;;;5011820;28;20859;-38
2022/11/20 14:19:49;;;;;;;55.13;33.00;;;;;;;;;;5009736;28;20422;-38
2022/11/20 14:22:20;;;;;;;49.67;31.37;;;;;;;;;;5010395;28;20177;-38
2022/11/20 14:24:47;;;;;;;50.93;32.70;;;;;;;;;;5010511;28;20369;-38
2022/11/20 14:27:14;;;;;;;53.80;32.37;;;;;;;;;;5012433;28;20270;-38
2022/11/20 14:29:41;;;;;;;49.63;32.43;;;;;;;;;;5013671;28;20169;-39
2022/11/20 14:32:09;;;;;;;55.40;34.60;;;;;;;;;;5011377;28;20188;-38